sensor_id;sensor_type;location;lat;lon;timestamp;P1;durP1;ratioP1;P2;durP2;ratioP2
8632;SDS011;4354;49.832;10.746;2024-03-22T00:01:11;3.13;;;2.70;;
8632;SDS011;4354;49.832;10.746;2024-03-22T00:03:36;5.50;;;3.20;;
8632;SDS011;4354;49.832;10.746;2024-03-22T00:06:02;3.20;;;2.90;;
8632;SDS011;4354;49.832;10.746;2024-03-22T00:08:28;3.90;;;2.97;;
8632;SDS011;4354;49.832;10.746;2024-03-22T00:10:54;4.70;;;2.90;;
8632;SDS011;4354;49.832;10.746;2024-03-22T00:13:20;4.50;;;2.90;;
8632;SDS011;4354;49.832;10.746;2024-03-22T00:15:45;4.23;;;3.07;;
8632;SDS011;4354;49.832;10.746;2024-03-22T00:18:11;4.73;;;3.23;;
8632;SDS011;4354;49.832;10.746;2024-03-22T00:20:37;4.80;;;3.13;;
8632;SDS011;4354;49.832;10.746;2024-03-22T00:23:03;4.00;;;2.80;;
8632;SDS011;4354;49.832;10.746;2024-03-22T00:25:29;4.30;;;2.83;;
8632;SDS011;4354;49.832;10.746;2024-03-22T00:27:56;3.27;;;2.93;;
8632;SDS011;4354;49.832;10.746;2024-03-22T00:30:22;6.10;;;3.00;;
8632;SDS011;4354;49.832;10.746;2024-03-22T00:32:47;5.13;;;3.27;;
8632;SDS011;4354;49.832;10.746;2024-03-22T00:35:13;5.00;;;3.40;;
8632;SDS011;4354;49.832;10.746;2024-03-22T00:37:39;5.80;;;3.27;;
8632;SDS011;4354;49.832;10.746;2024-03-22T00:40:05;7.60;;;3.50;;
8632;SDS011;4354;49.832;10.746;2024-03-22T00:42:31;6.77;;;3.67;;
8632;SDS011;4354;49.832;10.746;2024-03-22T00:44:57;3.83;;;3.10;;
8632;SDS011;4354;49.832;10.746;2024-03-22T00:47:23;7.43;;;3.63;;
8632;SDS011;4354;49.832;10.746;2024-03-22T00:49:49;4.73;;;3.50;;
8632;SDS011;4354;49.832;10.746;2024-03-22T00:52:15;7.00;;;3.30;;
8632;SDS011;4354;49.832;10.746;2024-03-22T00:54:40;5.17;;;3.53;;
8632;SDS011;4354;49.832;10.746;2024-03-22T00:57:06;5.07;;;3.53;;
8632;SDS011;4354;49.832;10.746;2024-03-22T00:59:32;7.00;;;4.33;;
8632;SDS011;4354;49.832;10.746;2024-03-22T01:01:58;9.90;;;5.77;;
8632;SDS011;4354;49.832;10.746;2024-03-22T01:04:24;5.53;;;4.00;;
8632;SDS011;4354;49.832;10.746;2024-03-22T01:06:49;7.30;;;4.30;;
8632;SDS011;4354;49.832;10.746;2024-03-22T01:09:15;6.93;;;4.43;;
8632;SDS011;4354;49.832;10.746;2024-03-22T01:11:41;5.63;;;3.90;;
8632;SDS011;4354;49.832;10.746;2024-03-22T01:14:07;6.83;;;4.23;;
8632;SDS011;4354;49.832;10.746;2024-03-22T01:16:33;5.87;;;4.07;;
8632;SDS011;4354;49.832;10.746;2024-03-22T01:18:58;5.43;;;3.60;;
8632;SDS011;4354;49.832;10.746;2024-03-22T01:21:24;7.37;;;4.47;;
8632;SDS011;4354;49.832;10.746;2024-03-22T01:23:53;9.53;;;4.90;;
8632;SDS011;4354;49.832;10.746;2024-03-22T01:26:19;5.97;;;4.97;;
8632;SDS011;4354;49.832;10.746;2024-03-22T01:28:46;6.07;;;4.67;;
8632;SDS011;4354;49.832;10.746;2024-03-22T01:31:12;9.97;;;4.97;;
8632;SDS011;4354;49.832;10.746;2024-03-22T01:33:38;5.97;;;4.27;;
8632;SDS011;4354;49.832;10.746;2024-03-22T01:36:04;5.90;;;5.10;;
8632;SDS011;4354;49.832;10.746;2024-03-22T01:38:30;6.70;;;4.53;;
8632;SDS011;4354;49.832;10.746;2024-03-22T01:40:57;6.13;;;4.43;;
8632;SDS011;4354;49.832;10.746;2024-03-22T01:43:22;7.87;;;3.90;;
8632;SDS011;4354;49.832;10.746;2024-03-22T01:45:48;6.63;;;4.20;;
8632;SDS011;4354;49.832;10.746;2024-03-22T01:48:14;6.77;;;4.90;;
8632;SDS011;4354;49.832;10.746;2024-03-22T01:50:40;6.67;;;4.43;;
8632;SDS011;4354;49.832;10.746;2024-03-22T01:53:06;7.73;;;4.50;;
8632;SDS011;4354;49.832;10.746;2024-03-22T01:55:32;6.20;;;4.60;;
8632;SDS011;4354;49.832;10.746;2024-03-22T01:57:58;8.70;;;5.00;;
8632;SDS011;4354;49.832;10.746;2024-03-22T02:00:24;6.13;;;4.63;;
8632;SDS011;4354;49.832;10.746;2024-03-22T02:02:49;7.37;;;4.70;;
8632;SDS011;4354;49.832;10.746;2024-03-22T02:05:15;7.00;;;4.83;;
8632;SDS011;4354;49.832;10.746;2024-03-22T02:07:46;8.43;;;4.63;;
8632;SDS011;4354;49.832;10.746;2024-03-22T02:10:12;7.33;;;4.50;;
8632;SDS011;4354;49.832;10.746;2024-03-22T02:12:39;7.33;;;4.77;;
8632;SDS011;4354;49.832;10.746;2024-03-22T02:15:05;7.40;;;5.07;;
8632;SDS011;4354;49.832;10.746;2024-03-22T02:17:32;11.63;;;6.33;;
8632;SDS011;4354;49.832;10.746;2024-03-22T02:19:58;12.67;;;6.60;;
8632;SDS011;4354;49.832;10.746;2024-03-22T02:22:25;13.87;;;7.40;;
8632;SDS011;4354;49.832;10.746;2024-03-22T02:24:52;12.77;;;6.77;;
8632;SDS011;4354;49.832;10.746;2024-03-22T02:27:18;9.37;;;6.27;;
8632;SDS011;4354;49.832;10.746;2024-03-22T02:29:43;10.17;;;5.97;;
8632;SDS011;4354;49.832;10.746;2024-03-22T02:32:09;9.93;;;6.37;;
8632;SDS011;4354;49.832;10.746;2024-03-22T02:34:35;10.13;;;6.87;;
8632;SDS011;4354;49.832;10.746;2024-03-22T02:37:01;12.67;;;6.73;;
8632;SDS011;4354;49.832;10.746;2024-03-22T02:39:27;11.03;;;6.73;;
8632;SDS011;4354;49.832;10.746;2024-03-22T02:41:54;11.17;;;6.53;;
8632;SDS011;4354;49.832;10.746;2024-03-22T02:44:20;9.23;;;6.27;;
8632;SDS011;4354;49.832;10.746;2024-03-22T02:46:46;9.17;;;5.70;;
8632;SDS011;4354;49.832;10.746;2024-03-22T02:49:12;13.00;;;5.83;;
8632;SDS011;4354;49.832;10.746;2024-03-22T02:51:38;9.23;;;5.57;;
8632;SDS011;4354;49.832;10.746;2024-03-22T02:54:04;8.67;;;5.30;;
8632;SDS011;4354;49.832;10.746;2024-03-22T02:56:30;8.47;;;5.60;;
8632;SDS011;4354;49.832;10.746;2024-03-22T02:58:56;10.97;;;5.40;;
8632;SDS011;4354;49.832;10.746;2024-03-22T03:01:22;6.87;;;4.73;;
8632;SDS011;4354;49.832;10.746;2024-03-22T03:03:47;8.53;;;5.27;;
8632;SDS011;4354;49.832;10.746;2024-03-22T03:06:14;8.23;;;5.47;;
8632;SDS011;4354;49.832;10.746;2024-03-22T03:08:40;9.03;;;4.97;;
8632;SDS011;4354;49.832;10.746;2024-03-22T03:11:06;8.63;;;4.70;;
8632;SDS011;4354;49.832;10.746;2024-03-22T03:13:32;5.97;;;4.43;;
8632;SDS011;4354;49.832;10.746;2024-03-22T03:15:57;8.37;;;5.00;;
8632;SDS011;4354;49.832;10.746;2024-03-22T03:18:23;9.57;;;5.13;;
8632;SDS011;4354;49.832;10.746;2024-03-22T03:20:49;6.90;;;5.10;;
8632;SDS011;4354;49.832;10.746;2024-03-22T03:23:15;9.90;;;5.10;;
8632;SDS011;4354;49.832;10.746;2024-03-22T03:25:41;8.83;;;4.80;;
8632;SDS011;4354;49.832;10.746;2024-03-22T03:28:06;7.40;;;4.73;;
8632;SDS011;4354;49.832;10.746;2024-03-22T03:30:35;6.33;;;4.77;;
8632;SDS011;4354;49.832;10.746;2024-03-22T03:33:01;5.93;;;4.33;;
8632;SDS011;4354;49.832;10.746;2024-03-22T03:35:27;7.80;;;4.33;;
8632;SDS011;4354;49.832;10.746;2024-03-22T03:37:54;8.30;;;4.17;;
8632;SDS011;4354;49.832;10.746;2024-03-22T03:40:20;6.73;;;4.00;;
8632;SDS011;4354;49.832;10.746;2024-03-22T03:42:50;6.87;;;4.20;;
8632;SDS011;4354;49.832;10.746;2024-03-22T03:45:16;5.80;;;4.43;;
8632;SDS011;4354;49.832;10.746;2024-03-22T03:47:42;9.13;;;4.17;;
8632;SDS011;4354;49.832;10.746;2024-03-22T03:50:08;5.23;;;4.10;;
8632;SDS011;4354;49.832;10.746;2024-03-22T03:52:34;6.53;;;4.50;;
8632;SDS011;4354;49.832;10.746;2024-03-22T03:55:00;6.30;;;3.90;;
8632;SDS011;4354;49.832;10.746;2024-03-22T03:57:26;5.03;;;3.80;;
8632;SDS011;4354;49.832;10.746;2024-03-22T03:59:52;5.37;;;4.07;;
8632;SDS011;4354;49.832;10.746;2024-03-22T04:02:17;5.17;;;3.97;;
8632;SDS011;4354;49.832;10.746;2024-03-22T04:04:43;5.50;;;4.07;;
8632;SDS011;4354;49.832;10.746;2024-03-22T04:07:09;6.07;;;3.87;;
8632;SDS011;4354;49.832;10.746;2024-03-22T04:09:35;5.23;;;4.20;;
8632;SDS011;4354;49.832;10.746;2024-03-22T04:12:00;5.93;;;4.20;;
8632;SDS011;4354;49.832;10.746;2024-03-22T04:14:26;6.47;;;4.00;;
8632;SDS011;4354;49.832;10.746;2024-03-22T04:16:52;5.83;;;4.40;;
8632;SDS011;4354;49.832;10.746;2024-03-22T04:19:20;4.50;;;3.80;;
8632;SDS011;4354;49.832;10.746;2024-03-22T04:21:46;6.10;;;4.53;;
8632;SDS011;4354;49.832;10.746;2024-03-22T04:24:13;7.70;;;4.23;;
8632;SDS011;4354;49.832;10.746;2024-03-22T04:26:39;5.87;;;4.00;;
8632;SDS011;4354;49.832;10.746;2024-03-22T04:29:05;6.13;;;4.07;;
8632;SDS011;4354;49.832;10.746;2024-03-22T04:31:30;4.67;;;3.87;;
8632;SDS011;4354;49.832;10.746;2024-03-22T04:33:56;5.63;;;4.00;;
8632;SDS011;4354;49.832;10.746;2024-03-22T04:36:22;6.57;;;4.70;;
8632;SDS011;4354;49.832;10.746;2024-03-22T04:38:48;6.70;;;4.07;;
8632;SDS011;4354;49.832;10.746;2024-03-22T04:41:14;7.30;;;4.03;;
8632;SDS011;4354;49.832;10.746;2024-03-22T04:43:39;10.07;;;5.30;;
8632;SDS011;4354;49.832;10.746;2024-03-22T04:46:05;8.00;;;5.30;;
8632;SDS011;4354;49.832;10.746;2024-03-22T04:48:31;8.67;;;5.50;;
8632;SDS011;4354;49.832;10.746;2024-03-22T04:50:57;7.50;;;4.40;;
8632;SDS011;4354;49.832;10.746;2024-03-22T04:53:23;6.83;;;4.33;;
8632;SDS011;4354;49.832;10.746;2024-03-22T04:55:49;6.57;;;4.90;;
8632;SDS011;4354;49.832;10.746;2024-03-22T04:58:17;8.43;;;4.97;;
8632;SDS011;4354;49.832;10.746;2024-03-22T05:00:45;9.50;;;5.37;;
8632;SDS011;4354;49.832;10.746;2024-03-22T05:03:15;7.10;;;4.73;;
8632;SDS011;4354;49.832;10.746;2024-03-22T05:05:42;7.87;;;5.47;;
8632;SDS011;4354;49.832;10.746;2024-03-22T05:08:08;6.43;;;4.93;;
8632;SDS011;4354;49.832;10.746;2024-03-22T05:10:35;8.23;;;4.83;;
8632;SDS011;4354;49.832;10.746;2024-03-22T05:13:00;9.13;;;5.43;;
8632;SDS011;4354;49.832;10.746;2024-03-22T05:15:26;7.33;;;5.47;;
8632;SDS011;4354;49.832;10.746;2024-03-22T05:17:53;11.00;;;5.13;;
8632;SDS011;4354;49.832;10.746;2024-03-22T05:20:20;9.67;;;5.93;;
8632;SDS011;4354;49.832;10.746;2024-03-22T05:22:46;10.70;;;6.27;;
8632;SDS011;4354;49.832;10.746;2024-03-22T05:25:12;9.17;;;6.13;;
8632;SDS011;4354;49.832;10.746;2024-03-22T05:27:40;10.30;;;6.20;;
8632;SDS011;4354;49.832;10.746;2024-03-22T05:30:07;11.60;;;6.47;;
8632;SDS011;4354;49.832;10.746;2024-03-22T05:32:34;8.60;;;6.60;;
8632;SDS011;4354;49.832;10.746;2024-03-22T05:35:00;8.60;;;5.43;;
8632;SDS011;4354;49.832;10.746;2024-03-22T05:37:26;13.90;;;5.77;;
8632;SDS011;4354;49.832;10.746;2024-03-22T05:39:52;9.77;;;5.50;;
8632;SDS011;4354;49.832;10.746;2024-03-22T05:42:17;10.73;;;5.87;;
8632;SDS011;4354;49.832;10.746;2024-03-22T05:44:44;13.70;;;5.87;;
8632;SDS011;4354;49.832;10.746;2024-03-22T05:47:10;8.20;;;5.60;;
8632;SDS011;4354;49.832;10.746;2024-03-22T05:49:36;9.20;;;6.30;;
8632;SDS011;4354;49.832;10.746;2024-03-22T05:52:02;13.90;;;7.97;;
8632;SDS011;4354;49.832;10.746;2024-03-22T05:54:28;10.97;;;7.60;;
8632;SDS011;4354;49.832;10.746;2024-03-22T05:56:54;10.47;;;6.97;;
8632;SDS011;4354;49.832;10.746;2024-03-22T05:59:20;11.47;;;5.97;;
8632;SDS011;4354;49.832;10.746;2024-03-22T06:01:46;10.57;;;6.50;;
8632;SDS011;4354;49.832;10.746;2024-03-22T06:04:12;9.30;;;6.27;;
8632;SDS011;4354;49.832;10.746;2024-03-22T06:06:38;9.73;;;6.40;;
8632;SDS011;4354;49.832;10.746;2024-03-22T06:09:04;12.80;;;7.10;;
8632;SDS011;4354;49.832;10.746;2024-03-22T06:11:33;14.83;;;9.37;;
8632;SDS011;4354;49.832;10.746;2024-03-22T06:13:59;17.77;;;9.33;;
8632;SDS011;4354;49.832;10.746;2024-03-22T06:16:25;14.37;;;8.50;;
8632;SDS011;4354;49.832;10.746;2024-03-22T06:18:52;13.40;;;8.57;;
8632;SDS011;4354;49.832;10.746;2024-03-22T06:21:18;12.97;;;8.10;;
8632;SDS011;4354;49.832;10.746;2024-03-22T06:23:51;14.77;;;8.80;;
8632;SDS011;4354;49.832;10.746;2024-03-22T06:26:17;15.63;;;9.60;;
8632;SDS011;4354;49.832;10.746;2024-03-22T06:28:43;13.27;;;8.77;;
8632;SDS011;4354;49.832;10.746;2024-03-22T06:31:09;14.87;;;9.03;;
8632;SDS011;4354;49.832;10.746;2024-03-22T06:33:36;15.10;;;9.33;;
8632;SDS011;4354;49.832;10.746;2024-03-22T06:36:01;14.80;;;9.27;;
8632;SDS011;4354;49.832;10.746;2024-03-22T06:38:28;14.60;;;9.20;;
8632;SDS011;4354;49.832;10.746;2024-03-22T06:40:54;16.03;;;10.10;;
8632;SDS011;4354;49.832;10.746;2024-03-22T06:43:20;13.63;;;9.53;;
8632;SDS011;4354;49.832;10.746;2024-03-22T06:45:46;14.87;;;8.90;;
8632;SDS011;4354;49.832;10.746;2024-03-22T06:48:12;15.80;;;8.53;;
8632;SDS011;4354;49.832;10.746;2024-03-22T06:50:40;14.33;;;9.10;;
8632;SDS011;4354;49.832;10.746;2024-03-22T06:53:06;14.20;;;9.33;;
8632;SDS011;4354;49.832;10.746;2024-03-22T06:55:32;18.33;;;9.77;;
8632;SDS011;4354;49.832;10.746;2024-03-22T06:57:58;11.93;;;8.43;;
8632;SDS011;4354;49.832;10.746;2024-03-22T07:00:24;10.90;;;7.93;;
8632;SDS011;4354;49.832;10.746;2024-03-22T07:02:49;14.63;;;9.50;;
8632;SDS011;4354;49.832;10.746;2024-03-22T07:05:15;17.00;;;9.20;;
8632;SDS011;4354;49.832;10.746;2024-03-22T07:07:41;15.03;;;9.73;;
8632;SDS011;4354;49.832;10.746;2024-03-22T07:10:07;13.03;;;8.83;;
8632;SDS011;4354;49.832;10.746;2024-03-22T07:12:33;15.37;;;9.37;;
8632;SDS011;4354;49.832;10.746;2024-03-22T07:14:59;15.97;;;9.70;;
8632;SDS011;4354;49.832;10.746;2024-03-22T07:17:26;14.60;;;9.00;;
8632;SDS011;4354;49.832;10.746;2024-03-22T07:19:53;15.40;;;8.73;;
8632;SDS011;4354;49.832;10.746;2024-03-22T07:22:19;13.00;;;8.87;;
8632;SDS011;4354;49.832;10.746;2024-03-22T07:24:46;14.60;;;9.63;;
8632;SDS011;4354;49.832;10.746;2024-03-22T07:27:16;14.00;;;9.10;;
8632;SDS011;4354;49.832;10.746;2024-03-22T07:29:42;17.83;;;9.00;;
8632;SDS011;4354;49.832;10.746;2024-03-22T07:32:09;12.33;;;8.47;;
8632;SDS011;4354;49.832;10.746;2024-03-22T07:34:35;16.17;;;9.47;;
8632;SDS011;4354;49.832;10.746;2024-03-22T07:37:01;16.17;;;9.73;;
8632;SDS011;4354;49.832;10.746;2024-03-22T07:39:29;14.03;;;10.03;;
8632;SDS011;4354;49.832;10.746;2024-03-22T07:41:55;16.90;;;10.20;;
8632;SDS011;4354;49.832;10.746;2024-03-22T07:44:21;23.37;;;13.13;;
8632;SDS011;4354;49.832;10.746;2024-03-22T07:46:49;19.27;;;11.80;;
8632;SDS011;4354;49.832;10.746;2024-03-22T07:49:15;17.80;;;11.13;;
8632;SDS011;4354;49.832;10.746;2024-03-22T07:51:41;15.80;;;10.67;;
8632;SDS011;4354;49.832;10.746;2024-03-22T07:54:07;18.70;;;11.00;;
8632;SDS011;4354;49.832;10.746;2024-03-22T07:56:32;11.17;;;9.40;;
8632;SDS011;4354;49.832;10.746;2024-03-22T07:58:58;12.83;;;9.20;;
8632;SDS011;4354;49.832;10.746;2024-03-22T08:01:25;13.10;;;9.00;;
8632;SDS011;4354;49.832;10.746;2024-03-22T08:03:51;11.53;;;8.03;;
8632;SDS011;4354;49.832;10.746;2024-03-22T08:06:16;10.15;;;7.90;;
8632;SDS011;4354;49.832;10.746;2024-03-22T08:08:43;14.52;;;8.82;;
8632;SDS011;4354;49.832;10.746;2024-03-22T08:11:09;9.68;;;8.45;;
8632;SDS011;4354;49.832;10.746;2024-03-22T08:13:35;11.18;;;8.10;;
8632;SDS011;4354;49.832;10.746;2024-03-22T08:16:01;11.10;;;8.77;;
8632;SDS011;4354;49.832;10.746;2024-03-22T08:18:27;10.40;;;8.32;;
8632;SDS011;4354;49.832;10.746;2024-03-22T08:20:52;10.25;;;9.07;;
8632;SDS011;4354;49.832;10.746;2024-03-22T08:23:18;10.45;;;8.80;;
8632;SDS011;4354;49.832;10.746;2024-03-22T08:25:45;9.23;;;8.20;;
8632;SDS011;4354;49.832;10.746;2024-03-22T08:28:12;9.73;;;8.75;;
8632;SDS011;4354;49.832;10.746;2024-03-22T08:30:41;11.07;;;9.27;;
8632;SDS011;4354;49.832;10.746;2024-03-22T08:33:07;11.52;;;10.40;;
8632;SDS011;4354;49.832;10.746;2024-03-22T08:35:34;11.32;;;10.23;;
8632;SDS011;4354;49.832;10.746;2024-03-22T08:38:00;13.07;;;11.73;;
8632;SDS011;4354;49.832;10.746;2024-03-22T08:40:25;12.35;;;11.05;;
8632;SDS011;4354;49.832;10.746;2024-03-22T08:42:52;13.13;;;11.75;;
8632;SDS011;4354;49.832;10.746;2024-03-22T08:45:18;13.63;;;12.32;;
8632;SDS011;4354;49.832;10.746;2024-03-22T08:47:43;13.90;;;12.57;;
8632;SDS011;4354;49.832;10.746;2024-03-22T08:50:12;14.02;;;12.63;;
8632;SDS011;4354;49.832;10.746;2024-03-22T08:52:38;12.80;;;11.55;;
8632;SDS011;4354;49.832;10.746;2024-03-22T08:55:04;13.27;;;12.07;;
8632;SDS011;4354;49.832;10.746;2024-03-22T08:57:33;13.30;;;11.98;;
8632;SDS011;4354;49.832;10.746;2024-03-22T08:59:59;13.48;;;12.20;;
8632;SDS011;4354;49.832;10.746;2024-03-22T09:02:25;14.27;;;12.88;;
8632;SDS011;4354;49.832;10.746;2024-03-22T09:04:51;13.85;;;12.45;;
8632;SDS011;4354;49.832;10.746;2024-03-22T09:07:18;14.70;;;13.10;;
8632;SDS011;4354;49.832;10.746;2024-03-22T09:09:44;14.10;;;12.60;;
8632;SDS011;4354;49.832;10.746;2024-03-22T09:12:10;16.13;;;12.88;;
8632;SDS011;4354;49.832;10.746;2024-03-22T09:14:35;14.93;;;13.30;;
8632;SDS011;4354;49.832;10.746;2024-03-22T09:17:01;16.05;;;12.32;;
8632;SDS011;4354;49.832;10.746;2024-03-22T09:19:27;15.52;;;12.80;;
8632;SDS011;4354;49.832;10.746;2024-03-22T09:21:53;15.77;;;13.15;;
8632;SDS011;4354;49.832;10.746;2024-03-22T09:24:18;14.68;;;12.65;;
8632;SDS011;4354;49.832;10.746;2024-03-22T09:26:45;16.23;;;13.55;;
8632;SDS011;4354;49.832;10.746;2024-03-22T09:29:12;17.75;;;13.15;;
8632;SDS011;4354;49.832;10.746;2024-03-22T09:31:38;15.85;;;13.20;;
8632;SDS011;4354;49.832;10.746;2024-03-22T09:34:04;16.95;;;13.70;;
8632;SDS011;4354;49.832;10.746;2024-03-22T09:36:30;14.70;;;12.73;;
8632;SDS011;4354;49.832;10.746;2024-03-22T09:39:00;18.27;;;13.25;;
8632;SDS011;4354;49.832;10.746;2024-03-22T09:41:27;16.70;;;13.38;;
8632;SDS011;4354;49.832;10.746;2024-03-22T09:43:54;16.45;;;12.68;;
8632;SDS011;4354;49.832;10.746;2024-03-22T09:46:24;16.40;;;13.63;;
8632;SDS011;4354;49.832;10.746;2024-03-22T09:48:50;16.33;;;13.68;;
8632;SDS011;4354;49.832;10.746;2024-03-22T09:51:18;16.55;;;13.13;;
8632;SDS011;4354;49.832;10.746;2024-03-22T09:53:46;16.83;;;13.35;;
8632;SDS011;4354;49.832;10.746;2024-03-22T09:56:14;19.20;;;13.18;;
8632;SDS011;4354;49.832;10.746;2024-03-22T09:58:40;20.02;;;14.90;;
8632;SDS011;4354;49.832;10.746;2024-03-22T10:01:07;15.20;;;12.77;;
8632;SDS011;4354;49.832;10.746;2024-03-22T10:03:33;17.38;;;13.45;;
8632;SDS011;4354;49.832;10.746;2024-03-22T10:05:59;16.25;;;12.93;;
8632;SDS011;4354;49.832;10.746;2024-03-22T10:08:26;16.15;;;12.00;;
8632;SDS011;4354;49.832;10.746;2024-03-22T10:10:52;14.27;;;12.40;;
8632;SDS011;4354;49.832;10.746;2024-03-22T10:13:17;14.45;;;11.85;;
8632;SDS011;4354;49.832;10.746;2024-03-22T10:15:43;14.05;;;11.13;;
8632;SDS011;4354;49.832;10.746;2024-03-22T10:18:09;14.15;;;11.15;;
8632;SDS011;4354;49.832;10.746;2024-03-22T10:20:36;12.65;;;10.95;;
8632;SDS011;4354;49.832;10.746;2024-03-22T10:23:03;13.57;;;12.18;;
8632;SDS011;4354;49.832;10.746;2024-03-22T10:25:29;13.88;;;12.32;;
8632;SDS011;4354;49.832;10.746;2024-03-22T10:27:55;12.90;;;11.60;;
8632;SDS011;4354;49.832;10.746;2024-03-22T10:30:22;12.82;;;11.13;;
8632;SDS011;4354;49.832;10.746;2024-03-22T10:32:49;11.68;;;10.23;;
8632;SDS011;4354;49.832;10.746;2024-03-22T10:35:15;11.02;;;8.98;;
8632;SDS011;4354;49.832;10.746;2024-03-22T10:37:42;9.88;;;8.88;;
8632;SDS011;4354;49.832;10.746;2024-03-22T10:40:08;14.23;;;11.38;;
8632;SDS011;4354;49.832;10.746;2024-03-22T10:42:40;11.65;;;10.45;;
8632;SDS011;4354;49.832;10.746;2024-03-22T10:45:08;13.82;;;12.40;;
8632;SDS011;4354;49.832;10.746;2024-03-22T10:47:35;14.10;;;12.32;;
8632;SDS011;4354;49.832;10.746;2024-03-22T10:50:06;13.27;;;11.88;;
8632;SDS011;4354;49.832;10.746;2024-03-22T10:52:54;13.70;;;11.63;;
8632;SDS011;4354;49.832;10.746;2024-03-22T10:55:27;13.27;;;11.27;;
8632;SDS011;4354;49.832;10.746;2024-03-22T10:57:57;12.73;;;11.43;;
8632;SDS011;4354;49.832;10.746;2024-03-22T11:00:30;10.75;;;9.68;;
8632;SDS011;4354;49.832;10.746;2024-03-22T11:03:04;12.18;;;10.65;;
8632;SDS011;4354;49.832;10.746;2024-03-22T11:05:30;11.52;;;10.30;;
8632;SDS011;4354;49.832;10.746;2024-03-22T11:08:02;7.20;;;5.85;;
8632;SDS011;4354;49.832;10.746;2024-03-22T11:10:30;12.02;;;9.05;;
8632;SDS011;4354;49.832;10.746;2024-03-22T11:13:05;7.18;;;6.28;;
8632;SDS011;4354;49.832;10.746;2024-03-22T11:15:32;6.55;;;4.68;;
8632;SDS011;4354;49.832;10.746;2024-03-22T11:17:59;6.82;;;4.82;;
8632;SDS011;4354;49.832;10.746;2024-03-22T11:20:26;10.10;;;8.55;;
8632;SDS011;4354;49.832;10.746;2024-03-22T11:22:52;11.40;;;10.15;;
8632;SDS011;4354;49.832;10.746;2024-03-22T11:25:18;6.70;;;5.10;;
8632;SDS011;4354;49.832;10.746;2024-03-22T11:27:48;5.32;;;4.00;;
8632;SDS011;4354;49.832;10.746;2024-03-22T11:30:15;4.75;;;4.00;;
8632;SDS011;4354;49.832;10.746;2024-03-22T11:32:41;3.90;;;3.50;;
8632;SDS011;4354;49.832;10.746;2024-03-22T11:35:11;4.95;;;3.40;;
8632;SDS011;4354;49.832;10.746;2024-03-22T11:37:41;7.55;;;3.67;;
8632;SDS011;4354;49.832;10.746;2024-03-22T11:40:11;2.80;;;2.13;;
8632;SDS011;4354;49.832;10.746;2024-03-22T11:42:38;3.28;;;2.15;;
8632;SDS011;4354;49.832;10.746;2024-03-22T11:45:05;5.45;;;2.85;;
8632;SDS011;4354;49.832;10.746;2024-03-22T11:47:34;4.95;;;2.83;;
8632;SDS011;4354;49.832;10.746;2024-03-22T11:50:01;4.18;;;2.60;;
8632;SDS011;4354;49.832;10.746;2024-03-22T11:52:27;3.08;;;2.78;;
8632;SDS011;4354;49.832;10.746;2024-03-22T11:54:54;4.95;;;3.47;;
8632;SDS011;4354;49.832;10.746;2024-03-22T11:57:21;4.00;;;3.60;;
8632;SDS011;4354;49.832;10.746;2024-03-22T11:59:48;4.88;;;3.95;;
8632;SDS011;4354;49.832;10.746;2024-03-22T12:02:14;7.15;;;4.00;;
8632;SDS011;4354;49.832;10.746;2024-03-22T12:04:49;6.88;;;4.90;;
8632;SDS011;4354;49.832;10.746;2024-03-22T12:07:16;5.47;;;4.57;;
8632;SDS011;4354;49.832;10.746;2024-03-22T12:09:46;5.40;;;4.90;;
8632;SDS011;4354;49.832;10.746;2024-03-22T12:12:12;5.13;;;4.63;;
8632;SDS011;4354;49.832;10.746;2024-03-22T12:14:39;4.78;;;4.32;;
8632;SDS011;4354;49.832;10.746;2024-03-22T12:17:07;3.70;;;3.25;;
8632;SDS011;4354;49.832;10.746;2024-03-22T12:19:34;3.30;;;3.00;;
8632;SDS011;4354;49.832;10.746;2024-03-22T12:22:00;4.10;;;3.70;;
8632;SDS011;4354;49.832;10.746;2024-03-22T12:24:26;3.72;;;3.33;;
8632;SDS011;4354;49.832;10.746;2024-03-22T12:26:55;4.78;;;3.38;;
8632;SDS011;4354;49.832;10.746;2024-03-22T12:29:20;5.00;;;3.65;;
8632;SDS011;4354;49.832;10.746;2024-03-22T12:31:47;3.90;;;3.50;;
8632;SDS011;4354;49.832;10.746;2024-03-22T12:34:13;5.07;;;3.75;;
8632;SDS011;4354;49.832;10.746;2024-03-22T12:36:38;4.30;;;3.90;;
8632;SDS011;4354;49.832;10.746;2024-03-22T12:39:04;6.47;;;3.95;;
8632;SDS011;4354;49.832;10.746;2024-03-22T12:41:31;4.95;;;3.90;;
8632;SDS011;4354;49.832;10.746;2024-03-22T12:43:58;3.75;;;3.40;;
8632;SDS011;4354;49.832;10.746;2024-03-22T12:46:25;5.57;;;4.20;;
8632;SDS011;4354;49.832;10.746;2024-03-22T12:48:51;10.02;;;3.75;;
8632;SDS011;4354;49.832;10.746;2024-03-22T12:51:17;5.35;;;3.75;;
8632;SDS011;4354;49.832;10.746;2024-03-22T12:53:42;5.07;;;4.57;;
8632;SDS011;4354;49.832;10.746;2024-03-22T12:56:08;4.93;;;4.20;;
8632;SDS011;4354;49.832;10.746;2024-03-22T12:58:34;5.63;;;4.00;;
8632;SDS011;4354;49.832;10.746;2024-03-22T13:01:00;5.90;;;4.35;;
8632;SDS011;4354;49.832;10.746;2024-03-22T13:03:27;4.18;;;3.78;;
8632;SDS011;4354;49.832;10.746;2024-03-22T13:05:53;5.63;;;4.07;;
8632;SDS011;4354;49.832;10.746;2024-03-22T13:08:19;4.38;;;3.83;;
8632;SDS011;4354;49.832;10.746;2024-03-22T13:10:46;6.65;;;4.40;;
8632;SDS011;4354;49.832;10.746;2024-03-22T13:13:12;4.63;;;3.78;;
8632;SDS011;4354;49.832;10.746;2024-03-22T13:15:41;4.25;;;3.72;;
8632;SDS011;4354;49.832;10.746;2024-03-22T13:18:07;6.20;;;3.63;;
8632;SDS011;4354;49.832;10.746;2024-03-22T13:20:37;5.20;;;4.07;;
8632;SDS011;4354;49.832;10.746;2024-03-22T13:23:03;7.90;;;4.40;;
8632;SDS011;4354;49.832;10.746;2024-03-22T13:25:29;4.82;;;4.30;;
8632;SDS011;4354;49.832;10.746;2024-03-22T13:27:55;4.35;;;3.95;;
8632;SDS011;4354;49.832;10.746;2024-03-22T13:30:21;3.63;;;3.25;;
8632;SDS011;4354;49.832;10.746;2024-03-22T13:32:47;3.45;;;3.15;;
8632;SDS011;4354;49.832;10.746;2024-03-22T13:35:13;4.30;;;3.15;;
8632;SDS011;4354;49.832;10.746;2024-03-22T13:37:40;3.33;;;3.03;;
8632;SDS011;4354;49.832;10.746;2024-03-22T13:40:06;3.97;;;2.67;;
8632;SDS011;4354;49.832;10.746;2024-03-22T13:42:33;2.63;;;2.42;;
8632;SDS011;4354;49.832;10.746;2024-03-22T13:44:58;2.60;;;2.40;;
8632;SDS011;4354;49.832;10.746;2024-03-22T13:47:24;2.92;;;2.72;;
8632;SDS011;4354;49.832;10.746;2024-03-22T13:49:53;3.67;;;2.35;;
8632;SDS011;4354;49.832;10.746;2024-03-22T13:52:22;2.78;;;2.50;;
8632;SDS011;4354;49.832;10.746;2024-03-22T13:54:48;3.58;;;2.50;;
8632;SDS011;4354;49.832;10.746;2024-03-22T13:57:15;4.18;;;3.10;;
8632;SDS011;4354;49.832;10.746;2024-03-22T13:59:41;4.55;;;2.58;;
8632;SDS011;4354;49.832;10.746;2024-03-22T14:02:06;3.67;;;2.70;;
8632;SDS011;4354;49.832;10.746;2024-03-22T14:04:35;3.00;;;2.50;;
8632;SDS011;4354;49.832;10.746;2024-03-22T14:07:01;5.43;;;2.97;;
8632;SDS011;4354;49.832;10.746;2024-03-22T14:09:33;3.20;;;2.80;;
8632;SDS011;4354;49.832;10.746;2024-03-22T14:11:59;4.93;;;2.72;;
8632;SDS011;4354;49.832;10.746;2024-03-22T14:14:28;3.40;;;2.92;;
8632;SDS011;4354;49.832;10.746;2024-03-22T14:16:54;3.45;;;1.95;;
8632;SDS011;4354;49.832;10.746;2024-03-22T14:19:20;3.60;;;2.00;;
8632;SDS011;4354;49.832;10.746;2024-03-22T14:21:47;6.28;;;2.95;;
8632;SDS011;4354;49.832;10.746;2024-03-22T14:24:13;8.75;;;7.05;;
8632;SDS011;4354;49.832;10.746;2024-03-22T14:26:39;2.80;;;1.92;;
8632;SDS011;4354;49.832;10.746;2024-03-22T14:29:11;2.70;;;1.95;;
8632;SDS011;4354;49.832;10.746;2024-03-22T14:31:38;4.95;;;3.70;;
8632;SDS011;4354;49.832;10.746;2024-03-22T14:34:05;4.63;;;3.13;;
8632;SDS011;4354;49.832;10.746;2024-03-22T14:36:31;3.55;;;2.47;;
8632;SDS011;4354;49.832;10.746;2024-03-22T14:38:58;5.25;;;2.83;;
8632;SDS011;4354;49.832;10.746;2024-03-22T14:41:24;2.95;;;2.65;;
8632;SDS011;4354;49.832;10.746;2024-03-22T14:43:50;4.85;;;2.72;;
8632;SDS011;4354;49.832;10.746;2024-03-22T14:46:16;4.70;;;2.83;;
8632;SDS011;4354;49.832;10.746;2024-03-22T14:48:45;2.78;;;2.30;;